sensor_id;sensor_type;location;lat;lon;timestamp;P1;P2;P0
34240;PMS7003;20503;50.200;19.508;2024-02-21T00:00:59;13;9;6
34240;PMS7003;20503;50.200;19.508;2024-02-21T00:02:06;11;8;5
34240;PMS7003;20503;50.200;19.508;2024-02-21T00:03:07;11;8;6
34240;PMS7003;20503;50.200;19.508;2024-02-21T00:04:08;11;7;5
34240;PMS7003;20503;50.200;19.508;2024-02-21T00:05:10;11;7;5
34240;PMS7003;20503;50.200;19.508;2024-02-21T00:06:11;11;9;6
34240;PMS7003;20503;50.200;19.508;2024-02-21T00:07:13;11;9;6
34240;PMS7003;20503;50.200;19.508;2024-02-21T00:08:14;11;7;5
34240;PMS7003;20503;50.200;19.508;2024-02-21T00:09:15;11;8;5
34240;PMS7003;20503;50.200;19.508;2024-02-21T00:10:16;13;9;5
34240;PMS7003;20503;50.200;19.508;2024-02-21T00:11:19;11;9;5
34240;PMS7003;20503;50.200;19.508;2024-02-21T00:12:20;11;9;5
34240;PMS7003;20503;50.200;19.508;2024-02-21T00:13:21;13;9;6
34240;PMS7003;20503;50.200;19.508;2024-02-21T00:14:23;13;9;6
34240;PMS7003;20503;50.200;19.508;2024-02-21T00:15:24;9;8;7
34240;PMS7003;20503;50.200;19.508;2024-02-21T00:16:26;9;8;7
34240;PMS7003;20503;50.200;19.508;2024-02-21T00:17:27;14;10;6
34240;PMS7003;20503;50.200;19.508;2024-02-21T00:18:28;14;10;6
34240;PMS7003;20503;50.200;19.508;2024-02-21T00:19:29;14;11;7
34240;PMS7003;20503;50.200;19.508;2024-02-21T00:20:40;13;10;8
34240;PMS7003;20503;50.200;19.508;2024-02-21T00:21:41;13;10;7
34240;PMS7003;20503;50.200;19.508;2024-02-21T00:22:43;13;10;7
34240;PMS7003;20503;50.200;19.508;2024-02-21T00:23:48;21;15;11
34240;PMS7003;20503;50.200;19.508;2024-02-21T00:24:51;21;15;11
34240;PMS7003;20503;50.200;19.508;2024-02-21T00:25:52;21;17;11
34240;PMS7003;20503;50.200;19.508;2024-02-21T00:26:54;21;17;11
34240;PMS7003;20503;50.200;19.508;2024-02-21T00:27:55;23;16;9
34240;PMS7003;20503;50.200;19.508;2024-02-21T00:29:15;19;12;8
34240;PMS7003;20503;50.200;19.508;2024-02-21T00:30:16;18;11;8
34240;PMS7003;20503;50.200;19.508;2024-02-21T00:31:18;18;11;8
34240;PMS7003;20503;50.200;19.508;2024-02-21T00:32:34;13;10;7
34240;PMS7003;20503;50.200;19.508;2024-02-21T00:33:35;12;10;7
34240;PMS7003;20503;50.200;19.508;2024-02-21T00:34:36;12;10;7
34240;PMS7003;20503;50.200;19.508;2024-02-21T00:35:37;12;10;7
34240;PMS7003;20503;50.200;19.508;2024-02-21T00:36:38;12;10;7
34240;PMS7003;20503;50.200;19.508;2024-02-21T00:37:40;13;11;7
34240;PMS7003;20503;50.200;19.508;2024-02-21T00:38:41;15;11;8
34240;PMS7003;20503;50.200;19.508;2024-02-21T00:39:43;15;11;8
34240;PMS7003;20503;50.200;19.508;2024-02-21T00:40:44;14;13;8
34240;PMS7003;20503;50.200;19.508;2024-02-21T00:41:52;17;12;8
34240;PMS7003;20503;50.200;19.508;2024-02-21T00:42:54;15;12;8
34240;PMS7003;20503;50.200;19.508;2024-02-21T00:43:55;15;12;8
34240;PMS7003;20503;50.200;19.508;2024-02-21T00:44:57;18;14;9
34240;PMS7003;20503;50.200;19.508;2024-02-21T00:45:59;18;14;9
34240;PMS7003;20503;50.200;19.508;2024-02-21T00:47:19;15;13;8
34240;PMS7003;20503;50.200;19.508;2024-02-21T00:48:20;15;13;8
34240;PMS7003;20503;50.200;19.508;2024-02-21T00:49:28;17;12;9
34240;PMS7003;20503;50.200;19.508;2024-02-21T00:50:29;17;12;9
34240;PMS7003;20503;50.200;19.508;2024-02-21T00:51:31;18;13;9
34240;PMS7003;20503;50.200;19.508;2024-02-21T00:52:32;18;13;9
34240;PMS7003;20503;50.200;19.508;2024-02-21T00:53:47;21;13;9
34240;PMS7003;20503;50.200;19.508;2024-02-21T00:54:49;19;13;9
34240;PMS7003;20503;50.200;19.508;2024-02-21T00:55:50;19;13;9
34240;PMS7003;20503;50.200;19.508;2024-02-21T00:57:16;16;12;10
34240;PMS7003;20503;50.200;19.508;2024-02-21T00:58:18;16;12;10
34240;PMS7003;20503;50.200;19.508;2024-02-21T00:59:34;17;12;9
34240;PMS7003;20503;50.200;19.508;2024-02-21T01:00:35;14;12;10
34240;PMS7003;20503;50.200;19.508;2024-02-21T01:01:36;20;16;11
34240;PMS7003;20503;50.200;19.508;2024-02-21T01:02:37;20;16;11
34240;PMS7003;20503;50.200;19.508;2024-02-21T01:03:39;21;15;11
34240;PMS7003;20503;50.200;19.508;2024-02-21T01:04:41;18;14;10
34240;PMS7003;20503;50.200;19.508;2024-02-21T01:05:42;15;14;11
34240;PMS7003;20503;50.200;19.508;2024-02-21T01:06:44;17;13;9
34240;PMS7003;20503;50.200;19.508;2024-02-21T01:07:45;17;13;9
34240;PMS7003;20503;50.200;19.508;2024-02-21T01:08:50;16;10;7
34240;PMS7003;20503;50.200;19.508;2024-02-21T01:09:51;14;10;7
34240;PMS7003;20503;50.200;19.508;2024-02-21T01:10:53;14;10;7
34240;PMS7003;20503;50.200;19.508;2024-02-21T01:11:54;13;10;7
34240;PMS7003;20503;50.200;19.508;2024-02-21T01:12:56;13;10;7
34240;PMS7003;20503;50.200;19.508;2024-02-21T01:13:58;15;12;9
34240;PMS7003;20503;50.200;19.508;2024-02-21T01:14:59;21;13;9
34240;PMS7003;20503;50.200;19.508;2024-02-21T01:16:00;18;13;9
34240;PMS7003;20503;50.200;19.508;2024-02-21T01:17:01;18;13;9
34240;PMS7003;20503;50.200;19.508;2024-02-21T01:18:03;22;14;10
34240;PMS7003;20503;50.200;19.508;2024-02-21T01:19:05;16;13;10
34240;PMS7003;20503;50.200;19.508;2024-02-21T01:20:07;17;15;10
34240;PMS7003;20503;50.200;19.508;2024-02-21T01:21:08;17;15;10
34240;PMS7003;20503;50.200;19.508;2024-02-21T01:22:11;23;15;9
34240;PMS7003;20503;50.200;19.508;2024-02-21T01:23:12;21;15;10
34240;PMS7003;20503;50.200;19.508;2024-02-21T01:24:13;17;13;9
34240;PMS7003;20503;50.200;19.508;2024-02-21T01:25:15;20;14;10
34240;PMS7003;20503;50.200;19.508;2024-02-21T01:26:21;20;16;10
34240;PMS7003;20503;50.200;19.508;2024-02-21T01:27:22;19;15;10
34240;PMS7003;20503;50.200;19.508;2024-02-21T01:28:23;19;15;10
34240;PMS7003;20503;50.200;19.508;2024-02-21T01:29:24;24;17;10
34240;PMS7003;20503;50.200;19.508;2024-02-21T01:30:26;22;16;9
34240;PMS7003;20503;50.200;19.508;2024-02-21T01:31:28;20;16;11
34240;PMS7003;20503;50.200;19.508;2024-02-21T01:32:29;18;16;11
34240;PMS7003;20503;50.200;19.508;2024-02-21T01:33:30;21;14;10
34240;PMS7003;20503;50.200;19.508;2024-02-21T01:34:35;23;19;11
34240;PMS7003;20503;50.200;19.508;2024-02-21T01:35:38;20;17;11
34240;PMS7003;20503;50.200;19.508;2024-02-21T01:36:39;22;13;9
34240;PMS7003;20503;50.200;19.508;2024-02-21T01:37:43;22;13;9
34240;PMS7003;20503;50.200;19.508;2024-02-21T01:38:44;20;15;10
34240;PMS7003;20503;50.200;19.508;2024-02-21T01:39:45;20;15;10
34240;PMS7003;20503;50.200;19.508;2024-02-21T01:41:11;17;14;11
34240;PMS7003;20503;50.200;19.508;2024-02-21T01:42:20;22;16;11
34240;PMS7003;20503;50.200;19.508;2024-02-21T01:43:21;20;16;11
34240;PMS7003;20503;50.200;19.508;2024-02-21T01:44:22;23;14;11
34240;PMS7003;20503;50.200;19.508;2024-02-21T01:45:23;17;14;11
34240;PMS7003;20503;50.200;19.508;2024-02-21T01:46:25;22;17;10
34240;PMS7003;20503;50.200;19.508;2024-02-21T01:47:31;20;15;8
34240;PMS7003;20503;50.200;19.508;2024-02-21T01:48:33;20;15;8
34240;PMS7003;20503;50.200;19.508;2024-02-21T01:49:36;19;13;9
34240;PMS7003;20503;50.200;19.508;2024-02-21T01:50:38;18;14;10
34240;PMS7003;20503;50.200;19.508;2024-02-21T01:51:39;18;14;10
34240;PMS7003;20503;50.200;19.508;2024-02-21T01:52:42;16;13;9
34240;PMS7003;20503;50.200;19.508;2024-02-21T01:53:47;17;13;9
34240;PMS7003;20503;50.200;19.508;2024-02-21T01:54:50;16;13;9
34240;PMS7003;20503;50.200;19.508;2024-02-21T01:56:15;18;13;10
34240;PMS7003;20503;50.200;19.508;2024-02-21T01:57:18;25;17;11
34240;PMS7003;20503;50.200;19.508;2024-02-21T01:58:19;21;15;10
34240;PMS7003;20503;50.200;19.508;2024-02-21T01:59:21;19;14;9
34240;PMS7003;20503;50.200;19.508;2024-02-21T02:00:24;19;14;9
34240;PMS7003;20503;50.200;19.508;2024-02-21T02:01:25;18;13;9
34240;PMS7003;20503;50.200;19.508;2024-02-21T02:02:27;18;13;9
34240;PMS7003;20503;50.200;19.508;2024-02-21T02:03:28;16;13;9
34240;PMS7003;20503;50.200;19.508;2024-02-21T02:04:30;19;14;9
34240;PMS7003;20503;50.200;19.508;2024-02-21T02:05:33;19;14;9
34240;PMS7003;20503;50.200;19.508;2024-02-21T02:06:35;20;14;11
34240;PMS7003;20503;50.200;19.508;2024-02-21T02:07:53;21;14;11
34240;PMS7003;20503;50.200;19.508;2024-02-21T02:08:54;23;15;11
34240;PMS7003;20503;50.200;19.508;2024-02-21T02:09:56;23;15;11
34240;PMS7003;20503;50.200;19.508;2024-02-21T02:11:16;26;17;11
34240;PMS7003;20503;50.200;19.508;2024-02-21T02:12:18;19;15;12
34240;PMS7003;20503;50.200;19.508;2024-02-21T02:13:20;20;16;11
34240;PMS7003;20503;50.200;19.508;2024-02-21T02:14:31;27;18;11
34240;PMS7003;20503;50.200;19.508;2024-02-21T02:16:45;25;15;10
34240;PMS7003;20503;50.200;19.508;2024-02-21T02:17:49;26;19;11
34240;PMS7003;20503;50.200;19.508;2024-02-21T02:18:50;26;19;11
34240;PMS7003;20503;50.200;19.508;2024-02-21T02:19:51;25;19;11
34240;PMS7003;20503;50.200;19.508;2024-02-21T02:20:52;27;20;12
34240;PMS7003;20503;50.200;19.508;2024-02-21T02:21:54;27;20;12
34240;PMS7003;20503;50.200;19.508;2024-02-21T02:24:13;25;19;12
34240;PMS7003;20503;50.200;19.508;2024-02-21T02:25:31;24;18;12
34240;PMS7003;20503;50.200;19.508;2024-02-21T02:26:33;29;22;14
34240;PMS7003;20503;50.200;19.508;2024-02-21T02:27:41;29;20;12
34240;PMS7003;20503;50.200;19.508;2024-02-21T02:28:45;29;20;12
34240;PMS7003;20503;50.200;19.508;2024-02-21T02:29:47;27;19;12
34240;PMS7003;20503;50.200;19.508;2024-02-21T02:30:48;27;19;12
34240;PMS7003;20503;50.200;19.508;2024-02-21T02:32:10;27;22;12
34240;PMS7003;20503;50.200;19.508;2024-02-21T02:33:13;25;19;12
34240;PMS7003;20503;50.200;19.508;2024-02-21T02:34:14;25;19;12
34240;PMS7003;20503;50.200;19.508;2024-02-21T02:35:16;28;21;13
34240;PMS7003;20503;50.200;19.508;2024-02-21T02:36:17;28;21;13
34240;PMS7003;20503;50.200;19.508;2024-02-21T02:37:18;28;21;12
34240;PMS7003;20503;50.200;19.508;2024-02-21T02:38:20;30;22;13
34240;PMS7003;20503;50.200;19.508;2024-02-21T02:39:21;30;22;13
34240;PMS7003;20503;50.200;19.508;2024-02-21T02:40:32;28;19;12
34240;PMS7003;20503;50.200;19.508;2024-02-21T02:41:37;28;19;12
34240;PMS7003;20503;50.200;19.508;2024-02-21T02:42:40;29;23;14
34240;PMS7003;20503;50.200;19.508;2024-02-21T02:43:41;29;23;14
34240;PMS7003;20503;50.200;19.508;2024-02-21T02:44:42;27;20;12
34240;PMS7003;20503;50.200;19.508;2024-02-21T02:45:44;26;21;13
34240;PMS7003;20503;50.200;19.508;2024-02-21T02:46:58;28;21;13
34240;PMS7003;20503;50.200;19.508;2024-02-21T02:47:59;29;21;13
34240;PMS7003;20503;50.200;19.508;2024-02-21T02:49:01;29;21;13
34240;PMS7003;20503;50.200;19.508;2024-02-21T02:50:27;32;21;12
34240;PMS7003;20503;50.200;19.508;2024-02-21T02:51:29;26;19;11
34240;PMS7003;20503;50.200;19.508;2024-02-21T02:52:30;32;21;13
34240;PMS7003;20503;50.200;19.508;2024-02-21T02:53:31;28;23;13
34240;PMS7003;20503;50.200;19.508;2024-02-21T02:54:33;29;22;13
34240;PMS7003;20503;50.200;19.508;2024-02-21T02:55:34;29;22;13
34240;PMS7003;20503;50.200;19.508;2024-02-21T02:56:36;30;22;12
34240;PMS7003;20503;50.200;19.508;2024-02-21T02:57:38;30;22;13
34240;PMS7003;20503;50.200;19.508;2024-02-21T02:58:39;29;20;12
34240;PMS7003;20503;50.200;19.508;2024-02-21T02:59:41;29;20;12
34240;PMS7003;20503;50.200;19.508;2024-02-21T03:00:42;29;23;13
34240;PMS7003;20503;50.200;19.508;2024-02-21T03:01:43;31;24;13
34240;PMS7003;20503;50.200;19.508;2024-02-21T03:02:46;31;24;13
34240;PMS7003;20503;50.200;19.508;2024-02-21T03:03:50;35;25;14
34240;PMS7003;20503;50.200;19.508;2024-02-21T03:04:52;35;25;14
34240;PMS7003;20503;50.200;19.508;2024-02-21T03:05:54;36;25;16
34240;PMS7003;20503;50.200;19.508;2024-02-21T03:06:55;30;22;15
34240;PMS7003;20503;50.200;19.508;2024-02-21T03:08:16;29;21;14
34240;PMS7003;20503;50.200;19.508;2024-02-21T03:09:17;33;22;13
34240;PMS7003;20503;50.200;19.508;2024-02-21T03:10:18;33;22;13
34240;PMS7003;20503;50.200;19.508;2024-02-21T03:11:20;29;25;15
34240;PMS7003;20503;50.200;19.508;2024-02-21T03:12:26;29;25;15
34240;PMS7003;20503;50.200;19.508;2024-02-21T03:13:58;31;25;14
34240;PMS7003;20503;50.200;19.508;2024-02-21T03:14:59;31;25;14
34240;PMS7003;20503;50.200;19.508;2024-02-21T03:16:00;30;21;14
34240;PMS7003;20503;50.200;19.508;2024-02-21T03:17:01;29;23;15
34240;PMS7003;20503;50.200;19.508;2024-02-21T03:18:04;29;23;15
34240;PMS7003;20503;50.200;19.508;2024-02-21T03:19:06;32;25;16
34240;PMS7003;20503;50.200;19.508;2024-02-21T03:20:08;32;26;16
34240;PMS7003;20503;50.200;19.508;2024-02-21T03:21:10;32;24;15
34240;PMS7003;20503;50.200;19.508;2024-02-21T03:22:12;41;32;20
34240;PMS7003;20503;50.200;19.508;2024-02-21T03:23:33;35;22;13
34240;PMS7003;20503;50.200;19.508;2024-02-21T03:24:35;35;22;13
34240;PMS7003;20503;50.200;19.508;2024-02-21T03:25:42;31;23;15
34240;PMS7003;20503;50.200;19.508;2024-02-21T03:26:43;31;23;15
34240;PMS7003;20503;50.200;19.508;2024-02-21T03:27:44;35;26;17
34240;PMS7003;20503;50.200;19.508;2024-02-21T03:28:46;35;24;14
34240;PMS7003;20503;50.200;19.508;2024-02-21T03:29:47;29;23;13
34240;PMS7003;20503;50.200;19.508;2024-02-21T03:30:50;29;22;14
34240;PMS7003;20503;50.200;19.508;2024-02-21T03:31:51;32;29;18
34240;PMS7003;20503;50.200;19.508;2024-02-21T03:32:53;32;29;18
34240;PMS7003;20503;50.200;19.508;2024-02-21T03:33:55;35;25;15
34240;PMS7003;20503;50.200;19.508;2024-02-21T03:35:09;35;24;15
34240;PMS7003;20503;50.200;19.508;2024-02-21T03:36:13;31;20;13
34240;PMS7003;20503;50.200;19.508;2024-02-21T03:37:17;31;20;13
34240;PMS7003;20503;50.200;19.508;2024-02-21T03:38:20;41;32;20
34240;PMS7003;20503;50.200;19.508;2024-02-21T03:39:33;34;25;16
34240;PMS7003;20503;50.200;19.508;2024-02-21T03:40:34;37;27;15
34240;PMS7003;20503;50.200;19.508;2024-02-21T03:41:35;33;25;15
34240;PMS7003;20503;50.200;19.508;2024-02-21T03:42:37;33;25;15
34240;PMS7003;20503;50.200;19.508;2024-02-21T03:43:38;37;27;17
34240;PMS7003;20503;50.200;19.508;2024-02-21T03:44:39;37;27;17
34240;PMS7003;20503;50.200;19.508;2024-02-21T03:45:41;36;26;17
34240;PMS7003;20503;50.200;19.508;2024-02-21T03:46:42;33;26;15
34240;PMS7003;20503;50.200;19.508;2024-02-21T03:47:43;37;31;17
34240;PMS7003;20503;50.200;19.508;2024-02-21T03:48:45;36;27;17
34240;PMS7003;20503;50.200;19.508;2024-02-21T03:49:46;36;27;17
34240;PMS7003;20503;50.200;19.508;2024-02-21T03:50:48;32;22;14
34240;PMS7003;20503;50.200;19.508;2024-02-21T03:51:49;32;22;14
34240;PMS7003;20503;50.200;19.508;2024-02-21T03:52:50;25;20;13
34240;PMS7003;20503;50.200;19.508;2024-02-21T03:53:51;28;22;14
34240;PMS7003;20503;50.200;19.508;2024-02-21T03:54:53;23;18;12
34240;PMS7003;20503;50.200;19.508;2024-02-21T03:55:55;26;20;12
34240;PMS7003;20503;50.200;19.508;2024-02-21T03:57:04;26;20;12
34240;PMS7003;20503;50.200;19.508;2024-02-21T03:58:06;23;18;12
34240;PMS7003;20503;50.200;19.508;2024-02-21T03:59:08;23;18;12
34240;PMS7003;20503;50.200;19.508;2024-02-21T04:00:10;22;16;11
34240;PMS7003;20503;50.200;19.508;2024-02-21T04:01:14;25;17;12
34240;PMS7003;20503;50.200;19.508;2024-02-21T04:02:17;23;17;12
34240;PMS7003;20503;50.200;19.508;2024-02-21T04:03:18;27;22;12
34240;PMS7003;20503;50.200;19.508;2024-02-21T04:04:20;27;22;12
34240;PMS7003;20503;50.200;19.508;2024-02-21T04:05:21;26;21;12
34240;PMS7003;20503;50.200;19.508;2024-02-21T04:06:23;26;21;12
34240;PMS7003;20503;50.200;19.508;2024-02-21T04:07:24;25;17;11
34240;PMS7003;20503;50.200;19.508;2024-02-21T04:08:25;24;19;11
34240;PMS7003;20503;50.200;19.508;2024-02-21T04:09:26;26;18;12
34240;PMS7003;20503;50.200;19.508;2024-02-21T04:10:28;26;17;12
34240;PMS7003;20503;50.200;19.508;2024-02-21T04:11:29;26;17;12
34240;PMS7003;20503;50.200;19.508;2024-02-21T04:12:30;26;18;11
34240;PMS7003;20503;50.200;19.508;2024-02-21T04:13:33;26;18;11
34240;PMS7003;20503;50.200;19.508;2024-02-21T04:14:34;24;18;12
34240;PMS7003;20503;50.200;19.508;2024-02-21T04:15:35;23;16;12
34240;PMS7003;20503;50.200;19.508;2024-02-21T04:16:37;26;18;11
34240;PMS7003;20503;50.200;19.508;2024-02-21T04:17:41;24;20;12
34240;PMS7003;20503;50.200;19.508;2024-02-21T04:18:42;27;20;12
34240;PMS7003;20503;50.200;19.508;2024-02-21T04:19:44;25;19;11
34240;PMS7003;20503;50.200;19.508;2024-02-21T04:20:45;31;21;11
34240;PMS7003;20503;50.200;19.508;2024-02-21T04:21:47;27;18;12
34240;PMS7003;20503;50.200;19.508;2024-02-21T04:22:48;27;18;12
34240;PMS7003;20503;50.200;19.508;2024-02-21T04:23:49;28;19;12
34240;PMS7003;20503;50.200;19.508;2024-02-21T04:24:51;29;22;12
34240;PMS7003;20503;50.200;19.508;2024-02-21T04:25:52;27;22;12
34240;PMS7003;20503;50.200;19.508;2024-02-21T04:26:53;23;21;12
34240;PMS7003;20503;50.200;19.508;2024-02-21T04:27:55;26;18;12
34240;PMS7003;20503;50.200;19.508;2024-02-21T04:28:56;26;18;12
34240;PMS7003;20503;50.200;19.508;2024-02-21T04:29:58;24;19;12
34240;PMS7003;20503;50.200;19.508;2024-02-21T04:31:20;24;18;11
34240;PMS7003;20503;50.200;19.508;2024-02-21T04:32:21;25;19;12
34240;PMS7003;20503;50.200;19.508;2024-02-21T04:33:23;25;19;12
34240;PMS7003;20503;50.200;19.508;2024-02-21T04:34:24;28;21;13
34240;PMS7003;20503;50.200;19.508;2024-02-21T04:35:27;28;21;13
34240;PMS7003;20503;50.200;19.508;2024-02-21T04:36:28;28;22;12
34240;PMS7003;20503;50.200;19.508;2024-02-21T04:37:29;28;22;12
34240;PMS7003;20503;50.200;19.508;2024-02-21T04:38:32;28;20;13
34240;PMS7003;20503;50.200;19.508;2024-02-21T04:39:33;33;23;14
34240;PMS7003;20503;50.200;19.508;2024-02-21T04:40:53;26;19;12
34240;PMS7003;20503;50.200;19.508;2024-02-21T04:42:11;28;19;11
34240;PMS7003;20503;50.200;19.508;2024-02-21T04:43:13;28;19;11
34240;PMS7003;20503;50.200;19.508;2024-02-21T04:44:14;27;19;12
34240;PMS7003;20503;50.200;19.508;2024-02-21T04:45:16;24;17;10
34240;PMS7003;20503;50.200;19.508;2024-02-21T04:46:19;24;17;10
34240;PMS7003;20503;50.200;19.508;2024-02-21T04:47:21;25;17;11
34240;PMS7003;20503;50.200;19.508;2024-02-21T04:48:25;25;17;11
34240;PMS7003;20503;50.200;19.508;2024-02-21T04:49:27;24;18;11
34240;PMS7003;20503;50.200;19.508;2024-02-21T04:50:28;24;18;11
34240;PMS7003;20503;50.200;19.508;2024-02-21T04:51:29;22;16;11
34240;PMS7003;20503;50.200;19.508;2024-02-21T04:52:55;19;14;10
34240;PMS7003;20503;50.200;19.508;2024-02-21T04:53:56;19;14;10
34240;PMS7003;20503;50.200;19.508;2024-02-21T04:54:57;22;17;11
34240;PMS7003;20503;50.200;19.508;2024-02-21T04:56:04;19;13;9
34240;PMS7003;20503;50.200;19.508;2024-02-21T04:57:06;20;16;11
34240;PMS7003;20503;50.200;19.508;2024-02-21T04:58:07;19;14;10
34240;PMS7003;20503;50.200;19.508;2024-02-21T04:59:10;18;13;8
34240;PMS7003;20503;50.200;19.508;2024-02-21T05:00:11;20;11;8
34240;PMS7003;20503;50.200;19.508;2024-02-21T05:01:14;18;14;8
34240;PMS7003;20503;50.200;19.508;2024-02-21T05:02:15;16;12;7
34240;PMS7003;20503;50.200;19.508;2024-02-21T05:03:21;16;11;8
34240;PMS7003;20503;50.200;19.508;2024-02-21T05:04:23;25;16;11
34240;PMS7003;20503;50.200;19.508;2024-02-21T05:05:24;25;16;11
34240;PMS7003;20503;50.200;19.508;2024-02-21T05:06:25;32;24;14
34240;PMS7003;20503;50.200;19.508;2024-02-21T05:07:26;32;24;14
34240;PMS7003;20503;50.200;19.508;2024-02-21T05:08:27;31;22;13
34240;PMS7003;20503;50.200;19.508;2024-02-21T05:09:29;30;21;13
34240;PMS7003;20503;50.200;19.508;2024-02-21T05:10:30;21;15;10
34240;PMS7003;20503;50.200;19.508;2024-02-21T05:11:31;17;14;9
34240;PMS7003;20503;50.200;19.508;2024-02-21T05:12:47;21;15;10
34240;PMS7003;20503;50.200;19.508;2024-02-21T05:13:56;15;13;8
34240;PMS7003;20503;50.200;19.508;2024-02-21T05:14:59;15;13;8
34240;PMS7003;20503;50.200;19.508;2024-02-21T05:16:00;20;13;9
34240;PMS7003;20503;50.200;19.508;2024-02-21T05:17:03;20;13;9
34240;PMS7003;20503;50.200;19.508;2024-02-21T05:18:05;19;13;9
34240;PMS7003;20503;50.200;19.508;2024-02-21T05:19:06;16;12;8
34240;PMS7003;20503;50.200;19.508;2024-02-21T05:20:08;16;12;8
34240;PMS7003;20503;50.200;19.508;2024-02-21T05:21:11;17;13;8
34240;PMS7003;20503;50.200;19.508;2024-02-21T05:22:13;19;15;10
34240;PMS7003;20503;50.200;19.508;2024-02-21T05:23:14;19;14;9
34240;PMS7003;20503;50.200;19.508;2024-02-21T05:24:15;19;14;9
34240;PMS7003;20503;50.200;19.508;2024-02-21T05:25:16;21;13;9
34240;PMS7003;20503;50.200;19.508;2024-02-21T05:26:44;19;15;9
34240;PMS7003;20503;50.200;19.508;2024-02-21T05:27:45;19;15;9
34240;PMS7003;20503;50.200;19.508;2024-02-21T05:28:46;17;12;8
34240;PMS7003;20503;50.200;19.508;2024-02-21T05:29:47;17;12;8
34240;PMS7003;20503;50.200;19.508;2024-02-21T05:30:49;16;12;9
34240;PMS7003;20503;50.200;19.508;2024-02-21T05:31:56;15;12;8
34240;PMS7003;20503;50.200;19.508;2024-02-21T05:32:59;19;14;9
34240;PMS7003;20503;50.200;19.508;2024-02-21T05:34:04;18;13;9
34240;PMS7003;20503;50.200;19.508;2024-02-21T05:35:06;18;10;7
34240;PMS7003;20503;50.200;19.508;2024-02-21T05:36:07;17;12;8
34240;PMS7003;20503;50.200;19.508;2024-02-21T05:37:08;17;12;8
34240;PMS7003;20503;50.200;19.508;2024-02-21T05:38:10;14;10;7
34240;PMS7003;20503;50.200;19.508;2024-02-21T05:39:15;14;10;7
34240;PMS7003;20503;50.200;19.508;2024-02-21T05:40:18;13;10;7
34240;PMS7003;20503;50.200;19.508;2024-02-21T05:41:20;15;11;8
34240;PMS7003;20503;50.200;19.508;2024-02-21T05:42:22;16;11;7
34240;PMS7003;20503;50.200;19.508;2024-02-21T05:43:23;13;10;7
34240;PMS7003;20503;50.200;19.508;2024-02-21T05:44:24;13;10;7
34240;PMS7003;20503;50.200;19.508;2024-02-21T05:45:28;12;8;6
34240;PMS7003;20503;50.200;19.508;2024-02-21T05:46:29;12;8;6
34240;PMS7003;20503;50.200;19.508;2024-02-21T05:47:31;13;9;6
34240;PMS7003;20503;50.200;19.508;2024-02-21T05:48:32;14;10;5
34240;PMS7003;20503;50.200;19.508;2024-02-21T05:49:34;14;10;5
34240;PMS7003;20503;50.200;19.508;2024-02-21T05:50:35;13;9;5
34240;PMS7003;20503;50.200;19.508;2024-02-21T05:51:37;13;9;5
34240;PMS7003;20503;50.200;19.508;2024-02-21T05:52:38;12;8;5
34240;PMS7003;20503;50.200;19.508;2024-02-21T05:53:40;12;8;5
34240;PMS7003;20503;50.200;19.508;2024-02-21T05:54:41;12;8;6
34240;PMS7003;20503;50.200;19.508;2024-02-21T05:55:43;14;10;7
34240;PMS7003;20503;50.200;19.508;2024-02-21T05:56:45;22;12;9
34240;PMS7003;20503;50.200;19.508;2024-02-21T05:57:47;22;12;9
34240;PMS7003;20503;50.200;19.508;2024-02-21T05:58:49;21;16;11
34240;PMS7003;20503;50.200;19.508;2024-02-21T05:59:50;27;20;13
34240;PMS7003;20503;50.200;19.508;2024-02-21T06:01:01;32;22;13
34240;PMS7003;20503;50.200;19.508;2024-02-21T06:02:05;31;21;15
34240;PMS7003;20503;50.200;19.508;2024-02-21T06:03:06;31;21;15
34240;PMS7003;20503;50.200;19.508;2024-02-21T06:04:08;28;24;16
34240;PMS7003;20503;50.200;19.508;2024-02-21T06:05:09;45;36;22
34240;PMS7003;20503;50.200;19.508;2024-02-21T06:06:10;37;26;16
34240;PMS7003;20503;50.200;19.508;2024-02-21T06:07:12;32;25;15
34240;PMS7003;20503;50.200;19.508;2024-02-21T06:08:13;32;25;15
34240;PMS7003;20503;50.200;19.508;2024-02-21T06:09:14;54;43;27
34240;PMS7003;20503;50.200;19.508;2024-02-21T06:10:16;60;45;27
34240;PMS7003;20503;50.200;19.508;2024-02-21T06:11:18;45;32;19
34240;PMS7003;20503;50.200;19.508;2024-02-21T06:12:19;37;28;17
34240;PMS7003;20503;50.200;19.508;2024-02-21T06:13:21;28;20;13
34240;PMS7003;20503;50.200;19.508;2024-02-21T06:14:23;23;16;11
34240;PMS7003;20503;50.200;19.508;2024-02-21T06:15:24;17;14;11
34240;PMS7003;20503;50.200;19.508;2024-02-21T06:16:27;20;13;9
34240;PMS7003;20503;50.200;19.508;2024-02-21T06:17:28;20;13;9
34240;PMS7003;20503;50.200;19.508;2024-02-21T06:18:30;18;13;9
34240;PMS7003;20503;50.200;19.508;2024-02-21T06:19:32;16;14;9
34240;PMS7003;20503;50.200;19.508;2024-02-21T06:20:33;15;13;9
34240;PMS7003;20503;50.200;19.508;2024-02-21T06:21:39;15;13;9
34240;PMS7003;20503;50.200;19.508;2024-02-21T06:22:40;21;15;10
34240;PMS7003;20503;50.200;19.508;2024-02-21T06:23:42;57;41;27
34240;PMS7003;20503;50.200;19.508;2024-02-21T06:24:43;57;41;27
34240;PMS7003;20503;50.200;19.508;2024-02-21T06:25:44;42;31;19
34240;PMS7003;20503;50.200;19.508;2024-02-21T06:26:48;42;31;19
34240;PMS7003;20503;50.200;19.508;2024-02-21T06:27:49;22;18;12
34240;PMS7003;20503;50.200;19.508;2024-02-21T06:28:50;22;18;12
34240;PMS7003;20503;50.200;19.508;2024-02-21T06:29:52;24;17;12
34240;PMS7003;20503;50.200;19.508;2024-02-21T06:31:02;21;17;11
34240;PMS7003;20503;50.200;19.508;2024-02-21T06:32:04;28;18;11
34240;PMS7003;20503;50.200;19.508;2024-02-21T06:33:05;28;18;11
34240;PMS7003;20503;50.200;19.508;2024-02-21T06:34:08;27;20;13
34240;PMS7003;20503;50.200;19.508;2024-02-21T06:35:10;27;20;13
34240;PMS7003;20503;50.200;19.508;2024-02-21T06:36:11;36;26;17
34240;PMS7003;20503;50.200;19.508;2024-02-21T06:37:12;42;32;20
34240;PMS7003;20503;50.200;19.508;2024-02-21T06:38:13;42;32;20
34240;PMS7003;20503;50.200;19.508;2024-02-21T06:39:18;34;24;15
34240;PMS7003;20503;50.200;19.508;2024-02-21T06:40:21;34;24;15
34240;PMS7003;20503;50.200;19.508;2024-02-21T06:41:23;45;33;21
34240;PMS7003;20503;50.200;19.508;2024-02-21T06:42:25;35;27;16
34240;PMS7003;20503;50.200;19.508;2024-02-21T06:43:26;32;27;16
34240;PMS7003;20503;50.200;19.508;2024-02-21T06:44:28;34;26;16
34240;PMS7003;20503;50.200;19.508;2024-02-21T06:45:29;34;26;16